createdAt,value
2022-07-25T00:01:49.624Z,97466.59
2022-07-25T00:03:58.410Z,97461.75
2022-07-25T00:06:06.441Z,97461.94
2022-07-25T00:08:22.120Z,97460.47
2022-07-25T00:10:30.306Z,97464.91
2022-07-25T00:12:38.735Z,97453.56
2022-07-25T00:14:50.993Z,97450.91
2022-07-25T00:16:59.230Z,97448.03
2022-07-25T00:19:07.529Z,97451.81
2022-07-25T00:21:16.134Z,97453.38
2022-07-25T00:23:24.365Z,97449.63
2022-07-25T00:25:33.262Z,97447.09
2022-07-25T00:27:41.566Z,97452.19
2022-07-25T00:29:52.462Z,97446.09
2022-07-25T00:32:00.954Z,97445.78
2022-07-25T00:34:09.514Z,97448.31
2022-07-25T00:36:18.130Z,97449.47
2022-07-25T00:38:26.351Z,97449.69
2022-07-25T00:40:35.029Z,97446.97
2022-07-25T00:42:43.263Z,97448.31
2022-07-25T00:44:54.411Z,97451.41
2022-07-25T00:47:03.303Z,97452.41
2022-07-25T00:49:12.143Z,97453.47
2022-07-25T00:51:20.971Z,97453.84
2022-07-25T00:53:29.690Z,97451.47
2022-07-25T00:55:38.981Z,97454.84
2022-07-25T00:57:48.458Z,97450.31
2022-07-25T00:59:59.459Z,97451.84
2022-07-25T01:02:08.069Z,97449.84
2022-07-25T01:04:17.989Z,97446.63
2022-07-25T01:06:26.942Z,97447.16
2022-07-25T01:08:35.834Z,97445.00
2022-07-25T01:10:44.248Z,97449.19
2022-07-25T01:12:54.970Z,97443.28
2022-07-25T01:15:05.874Z,97442.97
2022-07-25T01:17:14.002Z,97435.53
2022-07-25T01:19:22.135Z,97449.53
2022-07-25T01:21:33.056Z,97436.22
2022-07-25T01:23:41.380Z,97437.53
2022-07-25T01:25:49.355Z,97438.75
2022-07-25T01:27:58.332Z,97435.19
2022-07-25T01:30:09.369Z,97430.97
2022-07-25T01:32:17.966Z,97423.38
2022-07-25T01:34:25.967Z,97423.22
2022-07-25T01:36:37.243Z,97423.06
2022-07-25T01:38:45.619Z,97422.06
2022-07-25T01:40:53.888Z,97429.63
2022-07-25T01:43:02.028Z,97422.34
2022-07-25T01:45:11.900Z,97419.69
2022-07-25T01:47:20.078Z,97416.66
2022-07-25T01:49:28.289Z,97418.50
2022-07-25T01:51:40.986Z,97417.69
2022-07-25T01:53:51.220Z,97412.09
2022-07-25T01:56:00.452Z,97410.41
2022-07-25T01:58:10.862Z,97413.28
2022-07-25T02:00:19.722Z,97415.31
2022-07-25T02:02:27.761Z,97411.63
2022-07-25T02:04:37.642Z,97406.19
2022-07-25T02:06:49.273Z,97411.44
2022-07-25T02:08:57.089Z,97410.25
2022-07-25T02:11:05.669Z,97402.81
2022-07-25T02:13:13.769Z,97401.16
2022-07-25T02:15:22.762Z,97400.63
2022-07-25T02:17:33.009Z,97402.69
2022-07-25T02:19:41.114Z,97397.44
2022-07-25T02:21:51.609Z,97395.06
2022-07-25T02:24:01.357Z,97395.72
2022-07-25T02:26:09.589Z,97403.81
2022-07-25T02:28:21.353Z,97397.75
2022-07-25T02:30:29.780Z,97401.50
2022-07-25T02:32:37.686Z,97393.06
2022-07-25T02:34:45.642Z,97400.28
2022-07-25T02:36:58.398Z,97392.53
2022-07-25T02:39:07.561Z,97391.19
2022-07-25T02:41:15.802Z,97396.75
2022-07-25T02:43:24.034Z,97387.66
2022-07-25T02:45:33.551Z,97381.75
2022-07-25T02:47:43.827Z,97389.81
2022-07-25T02:49:51.728Z,97378.53
2022-07-25T02:52:03.778Z,97374.47
2022-07-25T02:54:12.637Z,97374.97
2022-07-25T02:56:21.426Z,97375.81
2022-07-25T02:58:30.691Z,97377.00
2022-07-25T03:00:39.062Z,97375.50
2022-07-25T03:02:47.430Z,97379.22
2022-07-25T03:04:55.409Z,97374.81
2022-07-25T03:07:05.892Z,97377.38
2022-07-25T03:09:14.055Z,97379.03
2022-07-25T03:11:22.962Z,97377.03
2022-07-25T03:13:30.814Z,97373.97
2022-07-25T03:15:38.888Z,97373.44
2022-07-25T03:17:47.880Z,97376.81
2022-07-25T03:19:55.752Z,97370.94
2022-07-25T03:22:06.242Z,97368.69
2022-07-25T03:24:14.142Z,97369.56
2022-07-25T03:26:24.012Z,97379.50
2022-07-25T03:28:32.977Z,97375.78
2022-07-25T03:30:41.167Z,97365.69
2022-07-25T03:32:48.997Z,97364.31
2022-07-25T03:34:57.308Z,97369.53
2022-07-25T03:37:08.487Z,97364.31
2022-07-25T03:39:18.331Z,97356.25
2022-07-25T03:41:27.943Z,97348.63
2022-07-25T03:43:36.422Z,97348.47
2022-07-25T03:45:44.519Z,97351.00
2022-07-25T03:47:52.507Z,97347.78
2022-07-25T03:50:00.550Z,97349.16
2022-07-25T03:52:11.086Z,97346.09
2022-07-25T03:54:18.862Z,97335.81
2022-07-25T03:56:26.747Z,97335.66
2022-07-25T03:58:34.708Z,97333.44
2022-07-25T04:00:42.602Z,97329.75
2022-07-25T04:02:50.602Z,97341.38
2022-07-25T04:04:58.428Z,97335.31
2022-07-25T04:07:06.361Z,97333.63
2022-07-25T04:09:17.241Z,97327.22
2022-07-25T04:11:25.195Z,97327.72
2022-07-25T04:13:33.062Z,97330.94
2022-07-25T04:15:40.903Z,97325.53
2022-07-25T04:17:48.696Z,97322.00
2022-07-25T04:19:56.763Z,97323.84
2022-07-25T04:22:04.786Z,97321.50
2022-07-25T04:24:12.893Z,97318.63
2022-07-25T04:26:24.241Z,97322.81
2022-07-25T04:28:32.865Z,97327.19
2022-07-25T04:30:41.551Z,97323.88
2022-07-25T04:32:49.528Z,97331.06
2022-07-25T04:34:57.574Z,97332.47
2022-07-25T04:37:05.446Z,97330.69
2022-07-25T04:39:13.331Z,97328.00
2022-07-25T04:41:24.449Z,97326.34
2022-07-25T04:43:32.950Z,97331.16
2022-07-25T04:45:44.155Z,97339.75
2022-07-25T04:47:52.445Z,97345.63
2022-07-25T04:50:01.288Z,97344.66
2022-07-25T04:52:09.594Z,97348.72
2022-07-25T04:54:17.414Z,97340.41
2022-07-25T04:56:27.952Z,97339.19
2022-07-25T04:58:36.388Z,97355.84
2022-07-25T05:00:44.422Z,97355.19
2022-07-25T05:02:52.437Z,97356.66
2022-07-25T05:05:03.122Z,97357.97
2022-07-25T05:07:11.314Z,97356.34
2022-07-25T05:09:19.537Z,97354.91
2022-07-25T05:11:31.127Z,97366.84
2022-07-25T05:13:41.600Z,97354.13
2022-07-25T05:15:49.563Z,97361.84
2022-07-25T05:18:01.673Z,97349.47
2022-07-25T05:20:18.075Z,97349.06
2022-07-25T05:22:28.500Z,97356.94
2022-07-25T05:24:50.979Z,97355.63
2022-07-25T05:27:02.254Z,97362.69
2022-07-25T05:29:10.394Z,97361.44
2022-07-25T05:31:18.334Z,97371.00
2022-07-25T05:33:26.705Z,97360.19
2022-07-25T05:35:34.629Z,97356.41
2022-07-25T05:37:42.470Z,97358.13
2022-07-25T05:39:51.647Z,97357.56
2022-07-25T05:42:03.390Z,97341.28
2022-07-25T05:44:11.554Z,97346.78
2022-07-25T05:46:22.192Z,97348.63
2022-07-25T05:48:33.990Z,97345.63
2022-07-25T05:50:41.962Z,97337.66
2022-07-25T05:52:51.551Z,97345.03
2022-07-25T05:55:01.777Z,97357.84
2022-07-25T05:57:12.339Z,97365.25
2022-07-25T05:59:20.616Z,97340.28
2022-07-25T06:01:28.683Z,97333.28
2022-07-25T06:03:37.211Z,97325.19
2022-07-25T06:05:45.084Z,97339.22
2022-07-25T06:07:53.215Z,97357.00
2022-07-25T06:10:01.512Z,97348.31
2022-07-25T06:12:14.160Z,97347.13
2022-07-25T06:14:22.091Z,97356.34
2022-07-25T06:16:33.665Z,97345.34
2022-07-25T06:18:41.610Z,97338.44
2022-07-25T06:20:49.813Z,97337.56
2022-07-25T06:22:57.988Z,97339.81
2022-07-25T06:25:08.662Z,97339.13
2022-07-25T06:27:23.040Z,97341.59
2022-07-25T06:29:32.963Z,97329.03
2022-07-25T06:31:40.927Z,97343.09
2022-07-25T06:33:51.414Z,97333.63
2022-07-25T06:35:59.447Z,97324.41
2022-07-25T06:38:10.507Z,97316.72
2022-07-25T06:40:20.769Z,97313.88
2022-07-25T06:42:33.423Z,97320.59
2022-07-25T06:44:41.388Z,97322.22
2022-07-25T06:46:49.253Z,97335.22
2022-07-25T06:48:59.957Z,97338.56
2022-07-25T06:51:08.932Z,97341.16
2022-07-25T06:53:19.288Z,97335.53
2022-07-25T06:55:27.402Z,97356.16
2022-07-25T06:57:39.311Z,97352.63
2022-07-25T06:59:47.974Z,97347.75
2022-07-25T07:01:57.871Z,97341.56
2022-07-25T07:04:09.072Z,97354.19
2022-07-25T07:06:17.548Z,97340.47
2022-07-25T07:08:25.605Z,97352.41
2022-07-25T07:10:34.001Z,97361.03
2022-07-25T07:12:44.833Z,97355.56
2022-07-25T07:14:52.702Z,97335.81
2022-07-25T07:17:01.911Z,97338.53
2022-07-25T07:19:15.492Z,97332.34
2022-07-25T07:21:23.493Z,97330.03
2022-07-25T07:23:31.343Z,97328.16
2022-07-25T07:25:40.894Z,97322.31
2022-07-25T07:27:54.458Z,97315.81
2022-07-25T07:30:02.463Z,97282.09
2022-07-25T07:32:12.686Z,97287.53
2022-07-25T07:34:22.993Z,97277.84
2022-07-25T07:38:55.297Z,97277.25
2022-07-25T07:41:03.211Z,97285.06
2022-07-25T07:43:13.781Z,97277.84
2022-07-25T07:45:23.444Z,97272.50
2022-07-25T07:47:31.349Z,97276.69
2022-07-25T07:49:39.243Z,97269.16
2022-07-25T07:51:47.133Z,97259.19
2022-07-25T07:54:07.454Z,97262.25
2022-07-25T07:56:15.294Z,97254.56
2022-07-25T07:58:25.953Z,97255.13
2022-07-25T08:00:36.254Z,97264.31
2022-07-25T08:02:49.082Z,97259.94
2022-07-25T08:04:57.014Z,97267.09
2022-07-25T08:07:04.959Z,97267.75
2022-07-25T08:09:12.958Z,97261.78
2022-07-25T08:11:20.955Z,97259.91
2022-07-25T08:13:34.114Z,97267.78
2022-07-25T08:15:42.203Z,97257.22
2022-07-25T08:17:51.978Z,97257.34
2022-07-25T08:20:14.677Z,97254.41
2022-07-25T08:22:27.846Z,97244.97
2022-07-25T08:24:35.771Z,97256.50
2022-07-25T08:26:46.204Z,97252.16
2022-07-25T08:29:17.575Z,97252.53
2022-07-25T08:31:25.481Z,97254.88
2022-07-25T08:33:33.465Z,97254.53
2022-07-25T08:35:42.032Z,97249.03
2022-07-25T08:37:51.774Z,97257.22
2022-07-25T08:40:02.620Z,97250.69
2022-07-25T08:42:11.737Z,97253.53
2022-07-25T08:44:23.355Z,97251.09
2022-07-25T08:46:32.751Z,97243.19
2022-07-25T08:48:41.573Z,97241.72
2022-07-25T08:50:51.458Z,97244.19
2022-07-25T08:53:34.926Z,97245.25
2022-07-25T08:55:28.952Z,97232.28
2022-07-25T08:57:38.621Z,97250.63
2022-07-25T08:59:51.638Z,97245.25
2022-07-25T09:02:07.217Z,97246.34
2022-07-25T09:04:17.192Z,97247.31
2022-07-25T09:06:26.065Z,97235.47
2022-07-25T09:08:34.162Z,97235.31
2022-07-25T09:10:43.568Z,97233.22
2022-07-25T09:12:56.456Z,97239.41
2022-07-25T09:15:09.289Z,97234.50
2022-07-25T09:17:22.331Z,97232.25
2022-07-25T09:19:31.952Z,97229.66
2022-07-25T09:21:39.965Z,97228.66
2022-07-25T09:23:49.802Z,97223.91
2022-07-25T09:26:05.483Z,97225.22
2022-07-25T09:28:18.260Z,97229.00
2022-07-25T09:30:29.272Z,97221.69
2022-07-25T09:32:37.176Z,97217.09
2022-07-25T09:34:47.757Z,97221.38
2022-07-25T09:36:56.539Z,97221.38
2022-07-25T09:39:06.663Z,97218.88
2022-07-25T09:41:14.593Z,97216.00
2022-07-25T09:43:24.669Z,97217.75
2022-07-25T09:45:37.073Z,97222.91
2022-07-25T09:47:57.437Z,97220.00
2022-07-25T09:50:07.869Z,97217.56
2022-07-25T09:52:17.409Z,97207.09
2022-07-25T09:54:25.346Z,97213.16
2022-07-25T09:56:33.231Z,97206.47
2022-07-25T09:58:41.446Z,97207.03
2022-07-25T10:00:53.439Z,97206.63
2022-07-25T10:03:21.134Z,97202.38
2022-07-25T10:05:43.094Z,97211.50
2022-07-25T10:07:53.742Z,97198.97
2022-07-25T10:10:02.915Z,97199.09
2022-07-25T10:12:13.370Z,97191.81
2022-07-25T10:14:21.306Z,97189.13
2022-07-25T10:16:31.929Z,97197.59
2022-07-25T10:18:53.538Z,97181.59
2022-07-25T10:21:25.551Z,97187.38
2022-07-25T10:23:34.525Z,97176.63
2022-07-25T10:25:47.104Z,97178.13
2022-07-25T10:28:04.191Z,97168.06
2022-07-25T10:30:25.053Z,97159.88
2022-07-25T10:32:38.810Z,97169.75
2022-07-25T10:34:55.318Z,97166.41
2022-07-25T10:37:14.810Z,97161.50
2022-07-25T10:39:25.193Z,97162.56
2022-07-25T10:41:38.386Z,97162.91
2022-07-25T10:43:49.662Z,97163.03
2022-07-25T10:46:01.188Z,97162.19
2022-07-25T10:48:23.491Z,97154.97
2022-07-25T10:50:54.459Z,97157.00
2022-07-25T10:53:09.287Z,97152.56
2022-07-25T10:55:26.604Z,97137.59
2022-07-25T10:57:34.682Z,97137.38
2022-07-25T10:59:42.971Z,97144.53
2022-07-25T11:01:55.091Z,97134.25
2022-07-25T11:04:17.357Z,97132.75
2022-07-25T11:06:38.316Z,97125.94
2022-07-25T11:08:47.353Z,97123.50
2022-07-25T11:10:55.909Z,97134.50
2022-07-25T11:13:04.012Z,97116.47
2022-07-25T11:15:17.202Z,97117.88
2022-07-25T11:17:27.296Z,97119.38
2022-07-25T11:19:38.074Z,97113.97
2022-07-25T11:21:48.712Z,97119.19
2022-07-25T11:24:01.855Z,97115.06
2022-07-25T11:26:12.162Z,97113.34
2022-07-25T11:28:20.075Z,97104.34
2022-07-25T11:30:30.945Z,97096.47
2022-07-25T11:32:45.175Z,97092.28
2022-07-25T11:34:57.297Z,97090.88
2022-07-25T11:37:10.058Z,97076.22
2022-07-25T11:39:19.257Z,97082.03
2022-07-25T11:41:33.578Z,97062.97
2022-07-25T11:43:41.421Z,97072.25
2022-07-25T11:46:00.495Z,97083.63
2022-07-25T11:48:11.030Z,97080.84
2022-07-25T11:50:32.629Z,97067.06
2022-07-25T11:52:42.516Z,97060.81
2022-07-25T11:55:00.501Z,97076.19
2022-07-25T11:57:09.071Z,97072.28
2022-07-25T11:59:17.162Z,97063.97
2022-07-25T12:01:25.172Z,97072.66
2022-07-25T12:03:42.330Z,97075.19
2022-07-25T12:05:53.151Z,97072.56
2022-07-25T12:08:01.944Z,97064.88
2022-07-25T12:10:13.494Z,97070.31
2022-07-25T12:12:23.008Z,97054.09
2022-07-25T12:14:35.267Z,97054.28
2022-07-25T12:16:45.377Z,97064.41
2022-07-25T12:18:54.408Z,97059.28
2022-07-25T12:21:05.375Z,97054.94
2022-07-25T12:23:14.790Z,97049.25
2022-07-25T12:25:26.328Z,97052.31
2022-07-25T12:27:39.328Z,97049.34
2022-07-25T12:29:50.076Z,97053.09
2022-07-25T12:31:58.263Z,97055.19
2022-07-25T12:34:08.543Z,97052.69
2022-07-25T12:36:22.587Z,97053.19
2022-07-25T12:38:30.460Z,97050.25
2022-07-25T12:40:41.417Z,97047.38
2022-07-25T12:42:51.780Z,97046.78
2022-07-25T12:44:59.660Z,97049.84
2022-07-25T12:47:07.617Z,97046.44
2022-07-25T12:49:15.910Z,97048.94
2022-07-25T12:51:27.101Z,97050.50
2022-07-25T12:53:37.860Z,97048.31
2022-07-25T12:55:49.781Z,97042.44
2022-07-25T12:57:58.225Z,97046.78
2022-07-25T13:00:08.828Z,97046.78
2022-07-25T13:02:17.565Z,97046.78
2022-07-25T13:04:26.196Z,97048.88
2022-07-25T13:06:38.759Z,97051.69
2022-07-25T13:08:47.163Z,97061.06
2022-07-25T13:10:55.776Z,97067.91
2022-07-25T13:13:03.824Z,97051.44
2022-07-25T13:15:13.582Z,97061.69
2022-07-25T13:17:27.247Z,97050.97
2022-07-25T13:19:35.542Z,97055.63
2022-07-25T13:21:46.970Z,97054.38
2022-07-25T13:23:54.890Z,97051.16
2022-07-25T13:26:03.155Z,97056.47
2022-07-25T13:28:11.312Z,97043.88
2022-07-25T13:30:19.768Z,97050.75
2022-07-25T13:32:28.610Z,97052.72
2022-07-25T13:34:36.871Z,97044.66
2022-07-25T13:36:47.946Z,97054.38
2022-07-25T13:38:59.318Z,97049.13
2022-07-25T13:41:07.410Z,97051.81
2022-07-25T13:43:16.507Z,97050.63
2022-07-25T13:45:27.487Z,97044.53
2022-07-25T13:47:36.315Z,97043.19
2022-07-25T13:49:45.643Z,97043.19
2022-07-25T13:51:56.136Z,97044.56
2022-07-25T13:54:05.029Z,97045.66
2022-07-25T13:56:14.580Z,97050.31
2022-07-25T13:58:22.550Z,97040.91
2022-07-25T14:00:30.653Z,97049.59
2022-07-25T14:02:38.603Z,97046.28
2022-07-25T14:04:49.189Z,97042.31
2022-07-25T14:06:59.673Z,97031.03
2022-07-25T14:09:08.099Z,97033.63
2022-07-25T14:11:16.960Z,97032.25
2022-07-25T14:13:24.925Z,97030.88
2022-07-25T14:15:37.837Z,97030.59
2022-07-25T14:17:46.111Z,97030.03
2022-07-25T14:19:54.010Z,97029.72
2022-07-25T14:22:06.808Z,97027.41
2022-07-25T14:24:14.436Z,97036.78
2022-07-25T14:26:22.588Z,97046.81
2022-07-25T14:28:30.950Z,97040.72
2022-07-25T14:30:38.832Z,97043.00
2022-07-25T14:32:47.328Z,97042.91
2022-07-25T14:34:55.387Z,97045.31
2022-07-25T14:37:06.177Z,97042.00
2022-07-25T14:39:15.275Z,97039.66
2022-07-25T14:41:23.449Z,97022.59
2022-07-25T14:43:31.934Z,97032.25
2022-07-25T14:45:40.392Z,97038.53
2022-07-25T14:47:48.465Z,97033.91
2022-07-25T14:49:56.934Z,97034.88
2022-07-25T14:52:11.439Z,97030.81
2022-07-25T14:54:20.298Z,97037.25
2022-07-25T14:56:28.313Z,97040.59
2022-07-25T14:58:38.317Z,97033.94
2022-07-25T15:00:46.533Z,97027.72
2022-07-25T15:02:54.452Z,97031.16
2022-07-25T15:05:02.338Z,97022.41
2022-07-25T15:07:14.242Z,97025.78
2022-07-25T15:09:24.454Z,97027.22
2022-07-25T15:11:32.617Z,97025.16
2022-07-25T15:13:40.701Z,97020.56
2022-07-25T15:15:48.900Z,97022.22
2022-07-25T15:17:56.762Z,97019.13
2022-07-25T15:20:04.804Z,97016.72
2022-07-25T15:22:15.547Z,97018.66
2022-07-25T15:24:28.728Z,97012.56
2022-07-25T15:26:37.270Z,97019.59
2022-07-25T15:28:45.120Z,97019.75
2022-07-25T15:30:53.137Z,97020.63
2022-07-25T15:33:01.076Z,97006.66
2022-07-25T15:35:10.204Z,97014.03
2022-07-25T15:37:22.046Z,97009.59
2022-07-25T15:39:30.220Z,97011.75
2022-07-25T15:41:38.635Z,97015.47
2022-07-25T15:43:46.520Z,97020.06
2022-07-25T15:45:54.753Z,97011.28
2022-07-25T15:48:03.942Z,97001.31
2022-07-25T15:50:12.972Z,97009.63
2022-07-25T15:52:24.755Z,97011.97
2022-07-25T15:54:32.787Z,97008.56
2022-07-25T15:56:40.696Z,97015.50
2022-07-25T15:58:50.500Z,97022.72
2022-07-25T16:00:58.414Z,97020.66
2022-07-25T16:03:08.061Z,97016.28
2022-07-25T16:05:18.127Z,97018.25
2022-07-25T16:07:31.119Z,97025.09
2022-07-25T16:09:39.996Z,97021.31
2022-07-25T16:11:48.302Z,97017.97
2022-07-25T16:13:56.680Z,97019.88
2022-07-25T16:16:04.761Z,97022.63
2022-07-25T16:18:12.713Z,97023.53
2022-07-25T16:20:23.165Z,97021.44
2022-07-25T16:22:33.863Z,97019.34
2022-07-25T16:24:42.812Z,97018.31
2022-07-25T16:26:50.951Z,97026.81
2022-07-25T16:28:58.809Z,97026.50
2022-07-25T16:31:07.883Z,97028.94
2022-07-25T16:33:15.791Z,97025.94
2022-07-25T16:35:24.406Z,97034.91
2022-07-25T16:37:34.970Z,97031.72
2022-07-25T16:39:44.980Z,97033.72
2022-07-25T16:41:55.447Z,97029.81
2022-07-25T16:44:03.445Z,97027.50
2022-07-25T16:46:11.996Z,97028.31
2022-07-25T16:48:19.936Z,97026.63
2022-07-25T16:50:27.844Z,97022.22
2022-07-25T16:52:38.492Z,97023.16
2022-07-25T16:54:46.630Z,97024.03
2022-07-25T16:56:57.312Z,97031.47
2022-07-25T16:59:08.147Z,97029.69
2022-07-25T17:01:17.259Z,97038.50
2022-07-25T17:03:25.717Z,97029.19
2022-07-25T17:05:33.768Z,97031.72
2022-07-25T17:07:44.386Z,97031.59
2022-07-25T17:09:52.323Z,97033.34
2022-07-25T17:12:00.192Z,97022.97
2022-07-25T17:14:09.779Z,97036.72
2022-07-25T17:16:18.045Z,97026.25
2022-07-25T17:18:27.656Z,97026.94
2022-07-25T17:20:35.556Z,97028.59
2022-07-25T17:22:46.651Z,97021.44
2022-07-25T17:24:54.605Z,97010.78
2022-07-25T17:27:03.543Z,97024.09
2022-07-25T17:29:11.620Z,97036.66
2022-07-25T17:31:19.717Z,97021.28
2022-07-25T17:33:28.481Z,97017.53
2022-07-25T17:35:37.829Z,97017.56
2022-07-25T17:37:49.616Z,97017.22
2022-07-25T17:39:57.716Z,97018.78
2022-07-25T17:42:08.030Z,97030.66
2022-07-25T17:44:16.773Z,97033.31
2022-07-25T17:46:25.143Z,97041.47
2022-07-25T17:48:35.321Z,97041.59
2022-07-25T17:50:45.425Z,97036.72
2022-07-25T17:53:02.430Z,97046.34
2022-07-25T17:55:12.113Z,97046.84
2022-07-25T17:57:20.608Z,97049.34
2022-07-25T17:59:28.766Z,97051.50
2022-07-25T18:01:37.225Z,97058.19
2022-07-25T18:03:47.590Z,97048.91
2022-07-25T18:05:55.542Z,97058.13
2022-07-25T18:08:08.939Z,97056.91
2022-07-25T18:10:21.288Z,97060.41
2022-07-25T18:12:29.598Z,97062.69
2022-07-25T18:14:37.515Z,97070.22
2022-07-25T18:16:48.237Z,97070.66
2022-07-25T18:18:56.194Z,97075.19
2022-07-25T18:21:05.751Z,97078.16
2022-07-25T18:23:16.879Z,97091.59
2022-07-25T18:25:26.164Z,97081.78
2022-07-25T18:27:34.298Z,97101.03
2022-07-25T18:29:42.513Z,97090.88
2022-07-25T18:31:51.014Z,97107.75
2022-07-25T18:33:58.813Z,97119.41
2022-07-25T18:36:08.559Z,97110.50
2022-07-25T18:38:19.768Z,97114.44
2022-07-25T18:40:29.035Z,97122.47
2022-07-25T18:42:39.227Z,97118.41
2022-07-25T18:44:47.522Z,97137.41
2022-07-25T18:46:55.392Z,97137.31
2022-07-25T18:49:05.971Z,97138.47
2022-07-25T18:51:14.326Z,97138.31
2022-07-25T18:53:24.789Z,97152.47
2022-07-25T18:55:33.335Z,97155.69
2022-07-25T18:57:41.318Z,97161.91
2022-07-25T18:59:49.392Z,97166.16
2022-07-25T19:01:58.095Z,97173.13
2022-07-25T19:04:06.904Z,97185.13
2022-07-25T19:06:15.211Z,97188.13
2022-07-25T19:08:27.008Z,97199.09
2022-07-25T19:10:35.428Z,97202.91
2022-07-25T19:12:45.783Z,97208.34
2022-07-25T19:14:53.731Z,97207.75
2022-07-25T19:17:04.541Z,97214.13
2022-07-25T19:19:12.877Z,97221.69
2022-07-25T19:21:20.950Z,97224.44
2022-07-25T19:23:31.921Z,97224.63
2022-07-25T19:25:40.134Z,97239.13
2022-07-25T19:27:51.352Z,97233.25
2022-07-25T19:30:00.341Z,97230.31
2022-07-25T19:32:09.245Z,97244.16
2022-07-25T19:34:20.170Z,97246.84
2022-07-25T19:36:28.019Z,97250.44
2022-07-25T19:38:38.703Z,97251.66
2022-07-25T19:40:46.865Z,97249.34
2022-07-25T19:42:54.896Z,97252.69
2022-07-25T19:45:02.892Z,97258.75
2022-07-25T19:47:12.024Z,97260.44
2022-07-25T19:49:41.860Z,97267.13
2022-07-25T19:51:55.105Z,97261.91
2022-07-25T19:54:08.444Z,97271.25
2022-07-25T19:56:23.353Z,97268.53
2022-07-25T19:58:34.188Z,97265.38
2022-07-25T20:00:46.204Z,97267.94
2022-07-25T20:02:54.956Z,97274.78
2022-07-25T20:05:05.254Z,97272.44
2022-07-25T20:07:13.076Z,97286.63
2022-07-25T20:09:24.010Z,97278.66
2022-07-25T20:11:32.343Z,97282.44
2022-07-25T20:13:40.281Z,97282.84
2022-07-25T20:15:48.263Z,97288.97
2022-07-25T20:17:57.317Z,97288.16
2022-07-25T20:20:07.813Z,97295.47
2022-07-25T20:22:15.721Z,97294.41
2022-07-25T20:24:27.391Z,97299.63
2022-07-25T20:26:36.868Z,97295.38
2022-07-25T20:28:47.117Z,97303.06
2022-07-25T20:30:56.224Z,97306.25
2022-07-25T20:33:08.002Z,97298.22
2022-07-25T20:35:18.432Z,97303.50
2022-07-25T20:37:26.426Z,97302.75
2022-07-25T20:39:39.933Z,97304.56
2022-07-25T20:41:47.965Z,97306.81
2022-07-25T20:43:58.069Z,97307.41
2022-07-25T20:46:09.265Z,97310.47
2022-07-25T20:48:19.691Z,97304.94
2022-07-25T20:50:29.178Z,97309.06
2022-07-25T20:52:37.084Z,97311.09
2022-07-25T20:55:00.053Z,97315.72
2022-07-25T20:57:11.630Z,97314.38
2022-07-25T20:59:20.045Z,97314.72
2022-07-25T21:01:29.815Z,97314.50
2022-07-25T21:03:38.996Z,97321.97
2022-07-25T21:05:46.958Z,97313.53
2022-07-25T21:07:55.340Z,97321.63
2022-07-25T21:10:05.891Z,97329.31
2022-07-25T21:12:14.089Z,97335.81
2022-07-25T21:14:21.967Z,97333.88
2022-07-25T21:16:35.047Z,97342.13
2022-07-25T21:18:44.070Z,97341.28
2022-07-25T21:20:53.399Z,97347.50
2022-07-25T21:23:01.805Z,97343.28
2022-07-25T21:25:14.786Z,97346.31
2022-07-25T21:27:23.749Z,97353.38
2022-07-25T21:29:31.820Z,97356.84
2022-07-25T21:31:40.318Z,97368.88
2022-07-25T21:33:49.457Z,97378.25
2022-07-25T21:35:57.630Z,97387.78
2022-07-25T21:38:06.227Z,97387.44
2022-07-25T21:40:17.326Z,97386.81
2022-07-25T21:42:25.556Z,97376.97
2022-07-25T21:44:34.589Z,97384.66
2022-07-25T21:46:45.159Z,97383.69
2022-07-25T21:49:05.546Z,97385.97
2022-07-25T21:51:22.924Z,97393.44
2022-07-25T21:53:32.051Z,97396.63
2022-07-25T21:55:44.325Z,97403.16
2022-07-25T21:57:52.561Z,97410.38
2022-07-25T22:00:00.758Z,97408.22
2022-07-25T22:02:09.101Z,97411.31
2022-07-25T22:04:18.107Z,97407.38
2022-07-25T22:06:26.467Z,97410.09
2022-07-25T22:08:36.765Z,97408.69
2022-07-25T22:10:47.941Z,97402.22
2022-07-25T22:12:56.781Z,97402.22
2022-07-25T22:15:05.063Z,97404.28
2022-07-25T22:17:13.777Z,97402.41
2022-07-25T22:19:22.611Z,97402.41
2022-07-25T22:21:31.065Z,97403.44
2022-07-25T22:23:39.036Z,97402.03
2022-07-25T22:25:50.190Z,97401.31
2022-07-25T22:27:58.544Z,97399.72
2022-07-25T22:30:08.673Z,97406.53
2022-07-25T22:32:17.129Z,97406.72
2022-07-25T22:34:25.356Z,97403.25
2022-07-25T22:36:33.781Z,97411.28
2022-07-25T22:38:43.282Z,97416.22
2022-07-25T22:40:55.245Z,97412.94
2022-07-25T22:43:03.539Z,97419.75
2022-07-25T22:45:13.103Z,97418.19
2022-07-25T22:47:21.071Z,97423.59
2022-07-25T22:49:29.200Z,97437.34
2022-07-25T22:51:37.589Z,97438.03
2022-07-25T22:53:46.251Z,97443.47
2022-07-25T22:55:57.258Z,97453.59
2022-07-25T22:58:05.581Z,97446.00
2022-07-25T23:00:17.172Z,97454.50
2022-07-25T23:02:27.795Z,97456.53
2022-07-25T23:04:36.021Z,97456.44
2022-07-25T23:06:44.042Z,97453.22
2022-07-25T23:08:53.177Z,97444.81
2022-07-25T23:11:06.168Z,97456.00
2022-07-25T23:13:14.599Z,97452.81
2022-07-25T23:15:22.870Z,97465.81
2022-07-25T23:17:34.889Z,97461.25
2022-07-25T23:19:43.582Z,97474.72
2022-07-25T23:21:51.781Z,97473.88
2022-07-25T23:24:00.522Z,97472.09
2022-07-25T23:26:11.206Z,97479.44
2022-07-25T23:28:19.919Z,97477.81
2022-07-25T23:30:27.872Z,97484.28
2022-07-25T23:32:37.066Z,97478.88
2022-07-25T23:34:46.822Z,97486.50
2022-07-25T23:36:54.946Z,97484.38
2022-07-25T23:39:03.297Z,97487.31
2022-07-25T23:41:14.736Z,97487.97
2022-07-25T23:43:56.413Z,97493.38
2022-07-25T23:45:51.146Z,97493.56
2022-07-25T23:47:59.808Z,97493.38
2022-07-25T23:50:09.788Z,97493.59
2022-07-25T23:52:18.222Z,97497.22
2022-07-25T23:54:26.714Z,97492.94
2022-07-25T23:56:37.246Z,97489.94
2022-07-25T23:58:46.268Z,97501.47
